METAR Data
IDs: Format: Raw Decoded Include TAF

Data at: 1342 UTC 16 Aug 2022

KDLS 161253Z AUTO 30003KT 10SM CLR 19/12 A2996 RMK AO2 SLP144 T01940117